KDRA/DRA METAR and TAF weather

Enter ICAO airport designator
Station Type Date Time Source
KDRA METAR 2021/01/17 18:53 UTC NOAA

KDRA 171853Z AUTO 02013KT 10SM CLR 17/M09 A3021 RMK AO2 SLP206 T01721094


Station Type Date Time Source
KDRA Decoded METAR 2021/01/17 18:53 UTC NOAA

DESERT ROCK AIRPORT, NV, United States (KDRA) 36-38N 116-02W 1006M
Jan 17, 2021 - 01:53 PM EST / 2021.01.17 1853 UTC
Wind: from the NNE (020 degrees) at 15 MPH (13 KT):0
Visibility: 10 mile(s):0
Sky conditions: clear
Temperature: 63.0 F (17.2 C)
Dew Point: 15.1 F (-9.4 C)
Relative Humidity: 15%
Pressure (altimeter): 30.21 in. Hg (1023 hPa)
ob: KDRA 171853Z AUTO 02013KT 10SM CLR 17/M09 A3021 RMK AO2 SLP206 T01721094
cycle: 19

Station Type Date Time Source
KDRA TAF 2011/12/07 06:36 UTC NOAA

TAF KDRA 070532Z 0706/0806 VRB04KT P6SM SKC

Example: see airport list